sensor_id;sensor_type;location;lat;lon;timestamp;temperature;humidity
3348;DHT22;1687;49.540;8.574;2022-08-19T00:01:31;23.10;61.90
3348;DHT22;1687;49.540;8.574;2022-08-19T00:03:58;23.10;61.90
3348;DHT22;1687;49.540;8.574;2022-08-19T00:06:28;23.10;62.00
3348;DHT22;1687;49.540;8.574;2022-08-19T00:08:56;23.00;61.80
3348;DHT22;1687;49.540;8.574;2022-08-19T00:11:22;23.00;62.00
3348;DHT22;1687;49.540;8.574;2022-08-19T00:13:49;23.00;62.00
3348;DHT22;1687;49.540;8.574;2022-08-19T00:16:16;23.00;62.10
3348;DHT22;1687;49.540;8.574;2022-08-19T00:18:44;23.00;62.10
3348;DHT22;1687;49.540;8.574;2022-08-19T00:21:10;22.90;62.10
3348;DHT22;1687;49.540;8.574;2022-08-19T00:23:36;22.90;62.10
3348;DHT22;1687;49.540;8.574;2022-08-19T00:26:04;22.90;62.20
3348;DHT22;1687;49.540;8.574;2022-08-19T00:28:31;22.80;62.20
3348;DHT22;1687;49.540;8.574;2022-08-19T00:30:58;22.70;62.20
3348;DHT22;1687;49.540;8.574;2022-08-19T00:33:25;22.60;62.20
3348;DHT22;1687;49.540;8.574;2022-08-19T00:35:51;22.60;62.50
3348;DHT22;1687;49.540;8.574;2022-08-19T00:38:17;22.70;62.80
3348;DHT22;1687;49.540;8.574;2022-08-19T00:40:43;22.70;62.90
3348;DHT22;1687;49.540;8.574;2022-08-19T00:43:12;22.80;62.90
3348;DHT22;1687;49.540;8.574;2022-08-19T00:45:39;22.90;62.90
3348;DHT22;1687;49.540;8.574;2022-08-19T00:48:08;23.00;62.90
3348;DHT22;1687;49.540;8.574;2022-08-19T00:50:34;22.90;62.70
3348;DHT22;1687;49.540;8.574;2022-08-19T00:53:02;22.90;62.70
3348;DHT22;1687;49.540;8.574;2022-08-19T00:55:28;22.80;62.80
3348;DHT22;1687;49.540;8.574;2022-08-19T00:58:05;22.70;62.80
3348;DHT22;1687;49.540;8.574;2022-08-19T01:00:33;22.80;63.10
3348;DHT22;1687;49.540;8.574;2022-08-19T01:03:08;22.70;63.00
3348;DHT22;1687;49.540;8.574;2022-08-19T01:05:37;22.80;63.30
3348;DHT22;1687;49.540;8.574;2022-08-19T01:08:05;22.90;63.50
3348;DHT22;1687;49.540;8.574;2022-08-19T01:10:36;22.90;63.20
3348;DHT22;1687;49.540;8.574;2022-08-19T01:13:06;22.90;63.20
3348;DHT22;1687;49.540;8.574;2022-08-19T01:15:41;22.80;63.10
3348;DHT22;1687;49.540;8.574;2022-08-19T01:18:13;22.80;63.20
3348;DHT22;1687;49.540;8.574;2022-08-19T01:20:40;22.90;63.40
3348;DHT22;1687;49.540;8.574;2022-08-19T01:23:06;22.80;63.30
3348;DHT22;1687;49.540;8.574;2022-08-19T01:25:43;22.80;63.20
3348;DHT22;1687;49.540;8.574;2022-08-19T01:28:18;22.70;63.20
3348;DHT22;1687;49.540;8.574;2022-08-19T01:30:46;22.70;63.50
3348;DHT22;1687;49.540;8.574;2022-08-19T01:33:12;22.70;63.80
3348;DHT22;1687;49.540;8.574;2022-08-19T01:35:39;22.70;63.70
3348;DHT22;1687;49.540;8.574;2022-08-19T01:38:07;22.70;63.70
3348;DHT22;1687;49.540;8.574;2022-08-19T01:40:43;22.80;63.70
3348;DHT22;1687;49.540;8.574;2022-08-19T01:43:09;22.90;63.90
3348;DHT22;1687;49.540;8.574;2022-08-19T01:45:35;22.90;63.80
3348;DHT22;1687;49.540;8.574;2022-08-19T01:48:03;23.00;63.70
3348;DHT22;1687;49.540;8.574;2022-08-19T01:50:32;23.00;63.70
3348;DHT22;1687;49.540;8.574;2022-08-19T01:53:00;23.00;63.70
3348;DHT22;1687;49.540;8.574;2022-08-19T01:55:27;23.00;63.70
3348;DHT22;1687;49.540;8.574;2022-08-19T01:57:56;23.00;63.70
3348;DHT22;1687;49.540;8.574;2022-08-19T02:00:25;22.90;63.50
3348;DHT22;1687;49.540;8.574;2022-08-19T02:02:54;22.90;63.60
3348;DHT22;1687;49.540;8.574;2022-08-19T02:05:19;22.90;63.60
3348;DHT22;1687;49.540;8.574;2022-08-19T02:07:47;22.90;63.60
3348;DHT22;1687;49.540;8.574;2022-08-19T02:10:17;22.80;63.50
3348;DHT22;1687;49.540;8.574;2022-08-19T02:12:45;22.70;63.60
3348;DHT22;1687;49.540;8.574;2022-08-19T02:15:12;22.70;63.70
3348;DHT22;1687;49.540;8.574;2022-08-19T02:17:38;22.60;63.60
3348;DHT22;1687;49.540;8.574;2022-08-19T02:20:05;22.60;63.70
3348;DHT22;1687;49.540;8.574;2022-08-19T02:22:32;22.50;63.60
3348;DHT22;1687;49.540;8.574;2022-08-19T02:24:58;22.40;63.70
3348;DHT22;1687;49.540;8.574;2022-08-19T02:27:23;22.50;63.90
3348;DHT22;1687;49.540;8.574;2022-08-19T02:29:50;22.40;63.80
3348;DHT22;1687;49.540;8.574;2022-08-19T02:32:16;22.40;64.00
3348;DHT22;1687;49.540;8.574;2022-08-19T02:34:45;22.60;64.70
3348;DHT22;1687;49.540;8.574;2022-08-19T02:37:11;22.70;64.30
3348;DHT22;1687;49.540;8.574;2022-08-19T02:39:57;23.00;64.80
3348;DHT22;1687;49.540;8.574;2022-08-19T02:42:23;23.10;64.20
3348;DHT22;1687;49.540;8.574;2022-08-19T02:44:49;23.10;64.30
3348;DHT22;1687;49.540;8.574;2022-08-19T02:47:17;23.10;64.10
3348;DHT22;1687;49.540;8.574;2022-08-19T02:49:44;23.10;63.90
3348;DHT22;1687;49.540;8.574;2022-08-19T02:52:10;23.00;63.90
3348;DHT22;1687;49.540;8.574;2022-08-19T02:54:36;22.90;63.90
3348;DHT22;1687;49.540;8.574;2022-08-19T02:57:04;22.80;64.00
3348;DHT22;1687;49.540;8.574;2022-08-19T02:59:32;22.70;63.90
3348;DHT22;1687;49.540;8.574;2022-08-19T03:01:58;22.70;64.10
3348;DHT22;1687;49.540;8.574;2022-08-19T03:04:23;22.70;64.10
3348;DHT22;1687;49.540;8.574;2022-08-19T03:06:50;22.60;63.90
3348;DHT22;1687;49.540;8.574;2022-08-19T03:09:18;22.50;64.00
3348;DHT22;1687;49.540;8.574;2022-08-19T03:11:44;22.50;64.10
3348;DHT22;1687;49.540;8.574;2022-08-19T03:14:10;22.40;64.00
3348;DHT22;1687;49.540;8.574;2022-08-19T03:16:45;22.30;64.00
3348;DHT22;1687;49.540;8.574;2022-08-19T03:19:15;22.20;64.10
3348;DHT22;1687;49.540;8.574;2022-08-19T03:21:43;22.20;64.50
3348;DHT22;1687;49.540;8.574;2022-08-19T03:24:10;22.20;64.60
3348;DHT22;1687;49.540;8.574;2022-08-19T03:26:42;22.20;64.60
3348;DHT22;1687;49.540;8.574;2022-08-19T03:29:11;22.20;64.60
3348;DHT22;1687;49.540;8.574;2022-08-19T03:31:39;22.20;64.60
3348;DHT22;1687;49.540;8.574;2022-08-19T03:34:06;22.30;64.80
3348;DHT22;1687;49.540;8.574;2022-08-19T03:36:32;22.30;64.80
3348;DHT22;1687;49.540;8.574;2022-08-19T03:39:00;22.30;64.80
3348;DHT22;1687;49.540;8.574;2022-08-19T03:41:29;22.20;64.70
3348;DHT22;1687;49.540;8.574;2022-08-19T03:43:58;22.10;64.70
3348;DHT22;1687;49.540;8.574;2022-08-19T03:46:30;22.00;64.80
3348;DHT22;1687;49.540;8.574;2022-08-19T03:48:59;21.90;64.80
3348;DHT22;1687;49.540;8.574;2022-08-19T03:51:26;21.90;64.90
3348;DHT22;1687;49.540;8.574;2022-08-19T03:53:55;21.80;64.90
3348;DHT22;1687;49.540;8.574;2022-08-19T03:56:21;21.70;65.00
3348;DHT22;1687;49.540;8.574;2022-08-19T03:58:47;21.70;65.10
3348;DHT22;1687;49.540;8.574;2022-08-19T04:01:16;21.60;65.20
3348;DHT22;1687;49.540;8.574;2022-08-19T04:03:44;21.60;65.40
3348;DHT22;1687;49.540;8.574;2022-08-19T04:06:21;21.60;65.40
3348;DHT22;1687;49.540;8.574;2022-08-19T04:08:50;21.60;65.60
3348;DHT22;1687;49.540;8.574;2022-08-19T04:11:21;21.70;65.70
3348;DHT22;1687;49.540;8.574;2022-08-19T04:13:49;21.80;66.00
3348;DHT22;1687;49.540;8.574;2022-08-19T04:16:18;21.80;65.70
3348;DHT22;1687;49.540;8.574;2022-08-19T04:18:46;21.80;65.70
3348;DHT22;1687;49.540;8.574;2022-08-19T04:21:22;21.70;65.80
3348;DHT22;1687;49.540;8.574;2022-08-19T04:23:50;21.70;66.00
3348;DHT22;1687;49.540;8.574;2022-08-19T04:26:23;21.60;66.00
3348;DHT22;1687;49.540;8.574;2022-08-19T04:28:50;21.60;66.10
3348;DHT22;1687;49.540;8.574;2022-08-19T04:31:21;21.70;66.20
3348;DHT22;1687;49.540;8.574;2022-08-19T04:33:48;21.70;66.20
3348;DHT22;1687;49.540;8.574;2022-08-19T04:36:19;21.70;66.20
3348;DHT22;1687;49.540;8.574;2022-08-19T04:38:47;21.70;66.30
3348;DHT22;1687;49.540;8.574;2022-08-19T04:41:15;21.70;66.40
3348;DHT22;1687;49.540;8.574;2022-08-19T04:44:00;21.70;66.50
3348;DHT22;1687;49.540;8.574;2022-08-19T04:46:27;21.70;66.50
3348;DHT22;1687;49.540;8.574;2022-08-19T04:48:58;21.70;66.50
3348;DHT22;1687;49.540;8.574;2022-08-19T04:51:24;21.70;66.60
3348;DHT22;1687;49.540;8.574;2022-08-19T04:53:50;21.70;66.60
3348;DHT22;1687;49.540;8.574;2022-08-19T04:56:18;21.70;66.60
3348;DHT22;1687;49.540;8.574;2022-08-19T04:58:48;21.70;66.70
3348;DHT22;1687;49.540;8.574;2022-08-19T05:01:22;21.60;66.80
3348;DHT22;1687;49.540;8.574;2022-08-19T05:03:50;21.70;67.10
3348;DHT22;1687;49.540;8.574;2022-08-19T05:06:18;21.80;67.20
3348;DHT22;1687;49.540;8.574;2022-08-19T05:08:45;21.90;67.20
3348;DHT22;1687;49.540;8.574;2022-08-19T05:11:17;22.00;67.10
3348;DHT22;1687;49.540;8.574;2022-08-19T05:14:05;22.00;66.90
3348;DHT22;1687;49.540;8.574;2022-08-19T05:16:31;21.90;66.80
3348;DHT22;1687;49.540;8.574;2022-08-19T05:18:57;21.80;66.90
3348;DHT22;1687;49.540;8.574;2022-08-19T05:21:42;21.80;67.10
3348;DHT22;1687;49.540;8.574;2022-08-19T05:24:27;21.80;67.30
3348;DHT22;1687;49.540;8.574;2022-08-19T05:26:55;21.80;67.20
3348;DHT22;1687;49.540;8.574;2022-08-19T05:29:26;21.80;67.30
3348;DHT22;1687;49.540;8.574;2022-08-19T05:31:54;21.90;67.50
3348;DHT22;1687;49.540;8.574;2022-08-19T05:34:22;21.90;67.30
3348;DHT22;1687;49.540;8.574;2022-08-19T05:36:52;21.90;67.40
3348;DHT22;1687;49.540;8.574;2022-08-19T05:39:25;21.80;67.50
3348;DHT22;1687;49.540;8.574;2022-08-19T05:41:55;21.90;67.60
3348;DHT22;1687;49.540;8.574;2022-08-19T05:44:28;21.90;67.50
3348;DHT22;1687;49.540;8.574;2022-08-19T05:46:59;21.90;67.60
3348;DHT22;1687;49.540;8.574;2022-08-19T05:49:27;21.90;67.50
3348;DHT22;1687;49.540;8.574;2022-08-19T05:51:54;22.00;67.60
3348;DHT22;1687;49.540;8.574;2022-08-19T05:54:22;21.90;67.50
3348;DHT22;1687;49.540;8.574;2022-08-19T05:56:49;22.00;67.70
3348;DHT22;1687;49.540;8.574;2022-08-19T05:59:16;22.10;68.00
3348;DHT22;1687;49.540;8.574;2022-08-19T06:01:45;22.20;68.00
3348;DHT22;1687;49.540;8.574;2022-08-19T06:04:16;22.20;67.70
3348;DHT22;1687;49.540;8.574;2022-08-19T06:06:48;22.20;67.70
3348;DHT22;1687;49.540;8.574;2022-08-19T06:09:16;22.20;67.90
3348;DHT22;1687;49.540;8.574;2022-08-19T06:11:54;22.30;68.10
3348;DHT22;1687;49.540;8.574;2022-08-19T06:14:26;22.40;68.00
3348;DHT22;1687;49.540;8.574;2022-08-19T06:16:53;22.40;67.80
3348;DHT22;1687;49.540;8.574;2022-08-19T06:19:21;22.50;68.30
3348;DHT22;1687;49.540;8.574;2022-08-19T06:21:49;22.50;67.80
3348;DHT22;1687;49.540;8.574;2022-08-19T06:24:18;22.50;67.70
3348;DHT22;1687;49.540;8.574;2022-08-19T06:26:47;22.50;67.80
3348;DHT22;1687;49.540;8.574;2022-08-19T06:29:15;22.50;67.80
3348;DHT22;1687;49.540;8.574;2022-08-19T06:31:44;22.50;67.70
3348;DHT22;1687;49.540;8.574;2022-08-19T06:34:12;22.60;67.80
3348;DHT22;1687;49.540;8.574;2022-08-19T06:36:42;22.60;67.80
3348;DHT22;1687;49.540;8.574;2022-08-19T06:39:15;22.60;67.70
3348;DHT22;1687;49.540;8.574;2022-08-19T06:41:47;22.70;68.00
3348;DHT22;1687;49.540;8.574;2022-08-19T06:44:17;22.90;68.90
3348;DHT22;1687;49.540;8.574;2022-08-19T06:46:44;23.00;67.80
3348;DHT22;1687;49.540;8.574;2022-08-19T06:49:10;23.10;67.60
3348;DHT22;1687;49.540;8.574;2022-08-19T06:51:40;23.10;67.60
3348;DHT22;1687;49.540;8.574;2022-08-19T06:54:07;23.10;67.60
3348;DHT22;1687;49.540;8.574;2022-08-19T06:56:34;23.20;67.40
3348;DHT22;1687;49.540;8.574;2022-08-19T06:59:11;23.20;67.50
3348;DHT22;1687;49.540;8.574;2022-08-19T07:01:48;23.20;67.10
3348;DHT22;1687;49.540;8.574;2022-08-19T07:04:21;23.20;67.20
3348;DHT22;1687;49.540;8.574;2022-08-19T07:06:49;23.20;67.00
3348;DHT22;1687;49.540;8.574;2022-08-19T07:09:17;23.20;67.10
3348;DHT22;1687;49.540;8.574;2022-08-19T07:11:48;23.10;66.90
3348;DHT22;1687;49.540;8.574;2022-08-19T07:14:16;23.10;66.80
3348;DHT22;1687;49.540;8.574;2022-08-19T07:16:43;23.10;67.00
3348;DHT22;1687;49.540;8.574;2022-08-19T07:19:11;23.10;67.00
3348;DHT22;1687;49.540;8.574;2022-08-19T07:21:38;23.10;67.10
3348;DHT22;1687;49.540;8.574;2022-08-19T07:24:04;23.20;67.30
3348;DHT22;1687;49.540;8.574;2022-08-19T07:26:41;23.40;68.10
3348;DHT22;1687;49.540;8.574;2022-08-19T07:29:08;23.60;67.30
3348;DHT22;1687;49.540;8.574;2022-08-19T07:31:35;23.70;66.90
3348;DHT22;1687;49.540;8.574;2022-08-19T07:34:06;23.70;67.00
3348;DHT22;1687;49.540;8.574;2022-08-19T07:36:36;23.60;66.80
3348;DHT22;1687;49.540;8.574;2022-08-19T07:39:07;23.60;66.60
3348;DHT22;1687;49.540;8.574;2022-08-19T07:41:36;23.60;66.70
3348;DHT22;1687;49.540;8.574;2022-08-19T07:44:04;23.60;66.70
3348;DHT22;1687;49.540;8.574;2022-08-19T07:46:31;23.60;66.70
3348;DHT22;1687;49.540;8.574;2022-08-19T07:48:58;23.60;66.60
3348;DHT22;1687;49.540;8.574;2022-08-19T07:51:25;23.60;66.50
3348;DHT22;1687;49.540;8.574;2022-08-19T07:53:51;23.50;66.40
3348;DHT22;1687;49.540;8.574;2022-08-19T07:56:19;23.50;66.50
3348;DHT22;1687;49.540;8.574;2022-08-19T07:58:47;23.60;66.60
3348;DHT22;1687;49.540;8.574;2022-08-19T08:01:18;23.70;66.80
3348;DHT22;1687;49.540;8.574;2022-08-19T08:03:47;23.80;66.60
3348;DHT22;1687;49.540;8.574;2022-08-19T08:06:33;23.90;66.60
3348;DHT22;1687;49.540;8.574;2022-08-19T08:09:22;24.00;66.60
3348;DHT22;1687;49.540;8.574;2022-08-19T08:11:54;24.00;66.30
3348;DHT22;1687;49.540;8.574;2022-08-19T08:14:39;24.00;66.40
3348;DHT22;1687;49.540;8.574;2022-08-19T08:17:07;24.10;66.40
3348;DHT22;1687;49.540;8.574;2022-08-19T08:19:34;24.20;66.30
3348;DHT22;1687;49.540;8.574;2022-08-19T08:22:01;24.20;66.10
3348;DHT22;1687;49.540;8.574;2022-08-19T08:24:29;24.20;66.10
3348;DHT22;1687;49.540;8.574;2022-08-19T08:26:57;24.30;66.10
3348;DHT22;1687;49.540;8.574;2022-08-19T08:29:24;24.30;66.10
3348;DHT22;1687;49.540;8.574;2022-08-19T08:31:54;24.40;66.00
3348;DHT22;1687;49.540;8.574;2022-08-19T08:34:20;24.60;66.20
3348;DHT22;1687;49.540;8.574;2022-08-19T08:36:46;24.80;66.10
3348;DHT22;1687;49.540;8.574;2022-08-19T08:39:16;25.10;66.20
3348;DHT22;1687;49.540;8.574;2022-08-19T08:44:52;25.50;65.40
3348;DHT22;1687;49.540;8.574;2022-08-19T08:47:23;25.80;65.30
3348;DHT22;1687;49.540;8.574;2022-08-19T08:50:05;25.90;64.90
3348;DHT22;1687;49.540;8.574;2022-08-19T08:52:36;26.00;64.60
3348;DHT22;1687;49.540;8.574;2022-08-19T08:55:11;26.10;64.10
3348;DHT22;1687;49.540;8.574;2022-08-19T09:00:30;26.30;63.30
3348;DHT22;1687;49.540;8.574;2022-08-19T09:03:03;26.20;62.80
3348;DHT22;1687;49.540;8.574;2022-08-19T09:05:55;26.30;62.60
3348;DHT22;1687;49.540;8.574;2022-08-19T09:11:09;26.60;62.20
3348;DHT22;1687;49.540;8.574;2022-08-19T09:13:49;26.50;61.40
3348;DHT22;1687;49.540;8.574;2022-08-19T09:16:21;26.50;61.40
3348;DHT22;1687;49.540;8.574;2022-08-19T09:18:57;26.60;61.40
3348;DHT22;1687;49.540;8.574;2022-08-19T09:21:26;26.70;61.10
3348;DHT22;1687;49.540;8.574;2022-08-19T09:23:52;26.80;60.90
3348;DHT22;1687;49.540;8.574;2022-08-19T09:26:21;27.00;60.70
3348;DHT22;1687;49.540;8.574;2022-08-19T09:28:50;27.10;60.50
3348;DHT22;1687;49.540;8.574;2022-08-19T09:31:21;27.20;60.20
3348;DHT22;1687;49.540;8.574;2022-08-19T09:33:50;27.30;60.70
3348;DHT22;1687;49.540;8.574;2022-08-19T09:36:19;27.20;59.60
3348;DHT22;1687;49.540;8.574;2022-08-19T09:38:47;27.20;59.60
3348;DHT22;1687;49.540;8.574;2022-08-19T09:41:16;27.40;59.50
3348;DHT22;1687;49.540;8.574;2022-08-19T09:43:48;27.50;59.40
3348;DHT22;1687;49.540;8.574;2022-08-19T09:46:18;27.70;59.30
3348;DHT22;1687;49.540;8.574;2022-08-19T09:48:46;27.90;58.90
3348;DHT22;1687;49.540;8.574;2022-08-19T09:51:19;27.70;58.40
3348;DHT22;1687;49.540;8.574;2022-08-19T09:53:47;27.40;58.20
3348;DHT22;1687;49.540;8.574;2022-08-19T09:56:18;27.20;58.30
3348;DHT22;1687;49.540;8.574;2022-08-19T09:58:44;27.10;58.40
3348;DHT22;1687;49.540;8.574;2022-08-19T10:01:22;27.20;58.30
3348;DHT22;1687;49.540;8.574;2022-08-19T10:03:52;27.30;58.20
3348;DHT22;1687;49.540;8.574;2022-08-19T10:06:21;27.40;58.10
3348;DHT22;1687;49.540;8.574;2022-08-19T10:08:49;27.60;58.10
3348;DHT22;1687;49.540;8.574;2022-08-19T10:11:17;27.90;57.80
3348;DHT22;1687;49.540;8.574;2022-08-19T10:13:45;28.00;57.50
3348;DHT22;1687;49.540;8.574;2022-08-19T10:16:17;27.80;57.60
3348;DHT22;1687;49.540;8.574;2022-08-19T10:18:47;27.70;57.10
3348;DHT22;1687;49.540;8.574;2022-08-19T10:21:25;27.70;57.00
3348;DHT22;1687;49.540;8.574;2022-08-19T10:23:54;27.80;56.80
3348;DHT22;1687;49.540;8.574;2022-08-19T10:26:25;27.80;56.60
3348;DHT22;1687;49.540;8.574;2022-08-19T10:28:56;27.90;56.50
3348;DHT22;1687;49.540;8.574;2022-08-19T10:31:27;28.10;56.40
3348;DHT22;1687;49.540;8.574;2022-08-19T10:33:54;28.30;56.20
3348;DHT22;1687;49.540;8.574;2022-08-19T10:36:29;28.60;56.00
3348;DHT22;1687;49.540;8.574;2022-08-19T10:39:03;28.80;55.80
3348;DHT22;1687;49.540;8.574;2022-08-19T10:41:37;28.80;55.50
3348;DHT22;1687;49.540;8.574;2022-08-19T10:44:07;28.90;55.20
3348;DHT22;1687;49.540;8.574;2022-08-19T10:46:36;28.90;55.20
3348;DHT22;1687;49.540;8.574;2022-08-19T10:49:04;28.90;55.20
3348;DHT22;1687;49.540;8.574;2022-08-19T10:51:31;28.80;54.90
3348;DHT22;1687;49.540;8.574;2022-08-19T10:54:17;28.70;54.80
3348;DHT22;1687;49.540;8.574;2022-08-19T10:56:43;28.70;54.90
3348;DHT22;1687;49.540;8.574;2022-08-19T10:59:23;28.80;54.80
3348;DHT22;1687;49.540;8.574;2022-08-19T11:01:53;28.80;54.80
3348;DHT22;1687;49.540;8.574;2022-08-19T11:04:20;28.70;54.40
3348;DHT22;1687;49.540;8.574;2022-08-19T11:06:48;28.40;54.40
3348;DHT22;1687;49.540;8.574;2022-08-19T11:09:19;28.30;54.50
3348;DHT22;1687;49.540;8.574;2022-08-19T11:11:46;28.20;54.40
3348;DHT22;1687;49.540;8.574;2022-08-19T11:14:16;28.20;54.50
3348;DHT22;1687;49.540;8.574;2022-08-19T11:16:44;28.20;54.40
3348;DHT22;1687;49.540;8.574;2022-08-19T11:19:11;28.30;54.40
3348;DHT22;1687;49.540;8.574;2022-08-19T11:21:43;28.40;54.00
3348;DHT22;1687;49.540;8.574;2022-08-19T11:24:18;28.60;54.00
3348;DHT22;1687;49.540;8.574;2022-08-19T11:26:47;28.90;53.90
3348;DHT22;1687;49.540;8.574;2022-08-19T11:29:15;29.00;53.50
3348;DHT22;1687;49.540;8.574;2022-08-19T11:31:45;29.00;53.20
3348;DHT22;1687;49.540;8.574;2022-08-19T11:34:21;28.80;53.00
3348;DHT22;1687;49.540;8.574;2022-08-19T11:36:49;28.70;53.10
3348;DHT22;1687;49.540;8.574;2022-08-19T11:39:18;28.70;53.30
3348;DHT22;1687;49.540;8.574;2022-08-19T11:41:45;28.90;53.20
3348;DHT22;1687;49.540;8.574;2022-08-19T11:44:11;29.00;53.00
3348;DHT22;1687;49.540;8.574;2022-08-19T11:46:40;28.90;52.70
3348;DHT22;1687;49.540;8.574;2022-08-19T11:49:06;29.00;52.60
3348;DHT22;1687;49.540;8.574;2022-08-19T11:51:35;28.90;52.50
3348;DHT22;1687;49.540;8.574;2022-08-19T11:54:01;28.80;52.50
3348;DHT22;1687;49.540;8.574;2022-08-19T11:56:29;28.80;52.50
3348;DHT22;1687;49.540;8.574;2022-08-19T11:58:55;28.90;52.60
3348;DHT22;1687;49.540;8.574;2022-08-19T12:01:24;29.10;52.50
3348;DHT22;1687;49.540;8.574;2022-08-19T12:03:52;29.20;52.20
3348;DHT22;1687;49.540;8.574;2022-08-19T12:06:30;29.20;52.00
3348;DHT22;1687;49.540;8.574;2022-08-19T12:08:59;29.10;52.10
3348;DHT22;1687;49.540;8.574;2022-08-19T12:11:26;29.20;52.10
3348;DHT22;1687;49.540;8.574;2022-08-19T12:13:52;29.30;52.20
3348;DHT22;1687;49.540;8.574;2022-08-19T12:16:22;29.30;51.90
3348;DHT22;1687;49.540;8.574;2022-08-19T12:18:49;29.30;51.60
3348;DHT22;1687;49.540;8.574;2022-08-19T12:21:20;29.30;51.50
3348;DHT22;1687;49.540;8.574;2022-08-19T12:23:49;29.40;51.30
3348;DHT22;1687;49.540;8.574;2022-08-19T12:26:15;29.40;51.10
3348;DHT22;1687;49.540;8.574;2022-08-19T12:28:42;29.50;51.00
3348;DHT22;1687;49.540;8.574;2022-08-19T12:31:08;29.50;50.80
3348;DHT22;1687;49.540;8.574;2022-08-19T12:33:37;29.70;50.70
3348;DHT22;1687;49.540;8.574;2022-08-19T12:36:05;29.80;50.50
3348;DHT22;1687;49.540;8.574;2022-08-19T12:38:33;29.90;50.40
3348;DHT22;1687;49.540;8.574;2022-08-19T12:40:59;29.90;50.20
3348;DHT22;1687;49.540;8.574;2022-08-19T12:43:25;30.00;50.10
3348;DHT22;1687;49.540;8.574;2022-08-19T12:45:52;30.30;50.20
3348;DHT22;1687;49.540;8.574;2022-08-19T12:48:17;30.30;49.90
3348;DHT22;1687;49.540;8.574;2022-08-19T12:50:44;30.20;49.50
3348;DHT22;1687;49.540;8.574;2022-08-19T12:53:14;30.10;49.30
3348;DHT22;1687;49.540;8.574;2022-08-19T12:55:40;29.90;49.30
3348;DHT22;1687;49.540;8.574;2022-08-19T12:58:07;29.90;49.30
3348;DHT22;1687;49.540;8.574;2022-08-19T13:00:33;30.10;49.40
3348;DHT22;1687;49.540;8.574;2022-08-19T13:02:59;30.40;49.20
3348;DHT22;1687;49.540;8.574;2022-08-19T13:05:29;30.50;48.90
3348;DHT22;1687;49.540;8.574;2022-08-19T13:07:57;30.60;49.00
3348;DHT22;1687;49.540;8.574;2022-08-19T13:10:27;30.50;48.60
3348;DHT22;1687;49.540;8.574;2022-08-19T13:13:02;30.30;48.40
3348;DHT22;1687;49.540;8.574;2022-08-19T13:15:33;30.10;48.50
3348;DHT22;1687;49.540;8.574;2022-08-19T13:18:00;30.00;48.40
3348;DHT22;1687;49.540;8.574;2022-08-19T13:20:27;29.80;48.30
3348;DHT22;1687;49.540;8.574;2022-08-19T13:22:53;29.80;48.30
3348;DHT22;1687;49.540;8.574;2022-08-19T13:25:19;29.80;48.30
3348;DHT22;1687;49.540;8.574;2022-08-19T13:27:47;30.00;48.30
3348;DHT22;1687;49.540;8.574;2022-08-19T13:30:15;30.10;48.10
3348;DHT22;1687;49.540;8.574;2022-08-19T13:33:01;30.30;47.90
3348;DHT22;1687;49.540;8.574;2022-08-19T13:35:36;30.50;47.50
3348;DHT22;1687;49.540;8.574;2022-08-19T13:38:03;30.60;47.10
3348;DHT22;1687;49.540;8.574;2022-08-19T13:40:31;30.80;46.80
3348;DHT22;1687;49.540;8.574;2022-08-19T13:42:58;30.60;46.40
3348;DHT22;1687;49.540;8.574;2022-08-19T13:45:26;30.50;46.40
3348;DHT22;1687;49.540;8.574;2022-08-19T13:47:56;30.50;46.50
3348;DHT22;1687;49.540;8.574;2022-08-19T13:50:25;30.90;46.70
3348;DHT22;1687;49.540;8.574;2022-08-19T13:52:53;31.70;46.60
3348;DHT22;1687;49.540;8.574;2022-08-19T13:55:20;32.70;46.30
3348;DHT22;1687;49.540;8.574;2022-08-19T13:57:50;33.70;45.80
3348;DHT22;1687;49.540;8.574;2022-08-19T14:00:18;34.70;45.20
3348;DHT22;1687;49.540;8.574;2022-08-19T14:02:45;35.70;44.70
3348;DHT22;1687;49.540;8.574;2022-08-19T14:05:14;36.30;43.60
3348;DHT22;1687;49.540;8.574;2022-08-19T14:07:40;36.30;42.60
3348;DHT22;1687;49.540;8.574;2022-08-19T14:10:09;36.60;42.50
3348;DHT22;1687;49.540;8.574;2022-08-19T14:12:36;37.00;42.30
3348;DHT22;1687;49.540;8.574;2022-08-19T14:15:03;37.10;41.60
3348;DHT22;1687;49.540;8.574;2022-08-19T14:17:30;36.90;41.00
3348;DHT22;1687;49.540;8.574;2022-08-19T14:19:58;36.60;40.70
3348;DHT22;1687;49.540;8.574;2022-08-19T14:22:25;37.20;40.80
3348;DHT22;1687;49.540;8.574;2022-08-19T14:24:51;38.20;40.70
3348;DHT22;1687;49.540;8.574;2022-08-19T14:27:17;39.10;40.00
3348;DHT22;1687;49.540;8.574;2022-08-19T14:29:42;39.80;39.60
3348;DHT22;1687;49.540;8.574;2022-08-19T14:32:09;40.30;38.70
3348;DHT22;1687;49.540;8.574;2022-08-19T14:34:34;40.30;37.90
3348;DHT22;1687;49.540;8.574;2022-08-19T14:37:02;40.40;37.70
3348;DHT22;1687;49.540;8.574;2022-08-19T14:39:28;40.80;37.30
3348;DHT22;1687;49.540;8.574;2022-08-19T14:41:53;40.50;36.50
3348;DHT22;1687;49.540;8.574;2022-08-19T14:44:19;40.60;36.50
3348;DHT22;1687;49.540;8.574;2022-08-19T14:46:45;40.70;36.50
3348;DHT22;1687;49.540;8.574;2022-08-19T14:49:11;40.90;36.20
3348;DHT22;1687;49.540;8.574;2022-08-19T14:51:37;41.40;35.90
3348;DHT22;1687;49.540;8.574;2022-08-19T14:54:03;41.90;35.50
3348;DHT22;1687;49.540;8.574;2022-08-19T14:56:29;41.80;34.50
3348;DHT22;1687;49.540;8.574;2022-08-19T14:58:56;41.70;34.30
3348;DHT22;1687;49.540;8.574;2022-08-19T15:01:25;41.80;34.10
3348;DHT22;1687;49.540;8.574;2022-08-19T15:03:52;42.00;34.40
3348;DHT22;1687;49.540;8.574;2022-08-19T15:06:19;42.60;34.20
3348;DHT22;1687;49.540;8.574;2022-08-19T15:08:45;42.30;33.00
3348;DHT22;1687;49.540;8.574;2022-08-19T15:11:14;41.70;32.80
3348;DHT22;1687;49.540;8.574;2022-08-19T15:13:43;41.50;32.90
3348;DHT22;1687;49.540;8.574;2022-08-19T15:16:10;41.40;33.00
3348;DHT22;1687;49.540;8.574;2022-08-19T15:18:36;41.50;33.30
3348;DHT22;1687;49.540;8.574;2022-08-19T15:21:02;41.40;32.70
3348;DHT22;1687;49.540;8.574;2022-08-19T15:23:29;40.20;32.20
3348;DHT22;1687;49.540;8.574;2022-08-19T15:25:55;39.60;32.50
3348;DHT22;1687;49.540;8.574;2022-08-19T15:28:22;39.40;32.80
3348;DHT22;1687;49.540;8.574;2022-08-19T15:30:48;39.10;32.90
3348;DHT22;1687;49.540;8.574;2022-08-19T15:33:15;38.60;32.60
3348;DHT22;1687;49.540;8.574;2022-08-19T15:35:42;38.40;33.10
3348;DHT22;1687;49.540;8.574;2022-08-19T15:38:09;38.20;33.10
3348;DHT22;1687;49.540;8.574;2022-08-19T15:40:35;38.00;33.10
3348;DHT22;1687;49.540;8.574;2022-08-19T15:43:01;37.60;33.00
3348;DHT22;1687;49.540;8.574;2022-08-19T15:45:27;37.10;33.10
3348;DHT22;1687;49.540;8.574;2022-08-19T15:48:00;36.50;33.10
3348;DHT22;1687;49.540;8.574;2022-08-19T15:50:27;35.90;33.20
3348;DHT22;1687;49.540;8.574;2022-08-19T15:52:56;35.20;33.40
3348;DHT22;1687;49.540;8.574;2022-08-19T15:55:29;34.90;33.70
3348;DHT22;1687;49.540;8.574;2022-08-19T15:57:58;34.70;33.60
3348;DHT22;1687;49.540;8.574;2022-08-19T16:00:43;34.40;33.80
3348;DHT22;1687;49.540;8.574;2022-08-19T16:03:27;34.00;34.00
3348;DHT22;1687;49.540;8.574;2022-08-19T16:06:12;33.70;34.20
3348;DHT22;1687;49.540;8.574;2022-08-19T16:08:54;33.40;34.30
3348;DHT22;1687;49.540;8.574;2022-08-19T16:11:23;33.10;34.50
3348;DHT22;1687;49.540;8.574;2022-08-19T16:13:52;33.00;34.70
3348;DHT22;1687;49.540;8.574;2022-08-19T16:16:27;33.00;35.00
3348;DHT22;1687;49.540;8.574;2022-08-19T16:18:55;33.00;35.10
3348;DHT22;1687;49.540;8.574;2022-08-19T16:21:23;32.90;35.00
3348;DHT22;1687;49.540;8.574;2022-08-19T16:23:51;32.70;35.00